Time;durP1;ratioP1;P1;durP2;ratioP2;P2;SDS_P1;SDS_P2;PMS_P1;PMS_P2;Temp;Humidity;BMP_temperature;BMP_pressure;BME280_temperature;BME280_humidity;BME280_pressure;Samples;Min_cycle;Max_cycle;Signal;HPM_P1;HPM_P2
2022/09/01 00:00:33;;;;;;;5.57;2.63;;;;;;;18.64;100.00;100203.44;5034321;28;20049;-77
2022/09/01 00:03:01;;;;;;;5.43;2.83;;;;;;;18.67;100.00;100200.47;5034590;28;20041;-76
2022/09/01 00:05:31;;;;;;;4.45;2.58;;;;;;;18.77;100.00;100198.59;5034192;28;20045;-77
2022/09/01 00:08:00;;;;;;;5.32;2.70;;;;;;;18.65;100.00;100188.94;5034629;28;20048;-77
2022/09/01 00:10:28;;;;;;;6.05;2.70;;;;;;;18.65;100.00;100186.25;5032961;28;20053;-76
2022/09/01 00:12:56;;;;;;;4.25;2.38;;;;;;;18.52;100.00;100180.25;5034538;28;20052;-76
2022/09/01 00:15:26;;;;;;;5.55;2.70;;;;;;;18.27;100.00;100187.13;5034343;28;20099;-76
2022/09/01 00:17:54;;;;;;;7.35;3.17;;;;;;;18.21;100.00;100191.22;5034497;28;20490;-77
2022/09/01 00:20:22;;;;;;;6.10;3.42;;;;;;;18.24;100.00;100199.06;5033850;28;20046;-75
2022/09/01 00:22:50;;;;;;;7.65;2.92;;;;;;;18.30;100.00;100203.88;5034397;28;20049;-71
2022/09/01 00:25:19;;;;;;;6.40;3.10;;;;;;;18.19;100.00;100195.94;5033855;28;20045;-72
2022/09/01 00:27:48;;;;;;;6.47;3.55;;;;;;;18.02;100.00;100210.13;5034068;28;20038;-77
2022/09/01 00:30:17;;;;;;;5.70;3.15;;;;;;;17.90;100.00;100212.09;5033617;28;20049;-77
2022/09/01 00:32:47;;;;;;;6.70;3.63;;;;;;;17.95;100.00;100215.25;5034165;28;20493;-74
2022/09/01 00:35:17;;;;;;;9.45;4.00;;;;;;;17.94;100.00;100224.31;5033865;28;20120;-74
2022/09/01 00:37:45;;;;;;;9.23;3.95;;;;;;;18.07;100.00;100228.63;5033897;28;20048;-76
2022/09/01 00:40:16;;;;;;;7.32;3.60;;;;;;;18.07;100.00;100229.47;5033734;28;20490;-76
2022/09/01 00:42:47;;;;;;;7.32;3.40;;;;;;;17.98;100.00;100236.56;5034085;28;20045;-74
2022/09/01 00:45:16;;;;;;;8.35;3.40;;;;;;;17.80;100.00;100231.97;5033637;28;20429;-75
2022/09/01 00:47:45;;;;;;;6.00;3.22;;;;;;;17.73;100.00;100232.53;5033925;28;20049;-74
2022/09/01 00:50:18;;;;;;;6.70;3.30;;;;;;;17.71;100.00;100236.34;5032037;28;20490;-75
2022/09/01 00:52:51;;;;;;;5.95;3.30;;;;;;;17.73;100.00;100243.31;5033986;28;20048;-71
2022/09/01 00:55:25;;;;;;;5.57;3.17;;;;;;;17.51;100.00;100248.91;5033671;28;20107;-71
2022/09/01 00:57:53;;;;;;;10.68;3.80;;;;;;;17.55;100.00;100239.53;5033736;28;20129;-71
2022/09/01 01:00:24;;;;;;;7.20;3.70;;;;;;;17.60;100.00;100253.47;5033237;28;20069;-71
2022/09/01 01:02:55;;;;;;;7.35;3.50;;;;;;;17.55;100.00;100250.31;5033414;28;20045;-71
2022/09/01 01:05:26;;;;;;;5.85;3.10;;;;;;;17.59;100.00;100246.38;5033222;28;20099;-71
2022/09/01 01:07:55;;;;;;;6.70;3.70;;;;;;;17.58;100.00;100250.06;5033446;28;20048;-71
2022/09/01 01:10:25;;;;;;;5.88;3.33;;;;;;;17.40;100.00;100249.84;5033177;28;20049;-74
2022/09/01 01:12:53;;;;;;;5.07;3.22;;;;;;;17.59;100.00;100246.38;5033748;28;20372;-73
2022/09/01 01:15:22;;;;;;;5.32;2.92;;;;;;;17.66;100.00;100250.25;5031765;28;20081;-73
2022/09/01 01:17:50;;;;;;;5.55;3.20;;;;;;;17.57;100.00;100240.28;5033156;28;20040;-72
2022/09/01 01:23:19;;;;;;;5.10;2.97;;;;;;;17.65;100.00;100251.19;5033312;28;20091;-74
2022/09/01 01:25:52;;;;;;;7.28;3.13;;;;;;;17.50;100.00;100252.59;5033171;28;20405;-74
2022/09/01 01:28:23;;;;;;;6.10;3.35;;;;;;;17.56;100.00;100257.41;5033117;28;20427;-74
2022/09/01 01:30:55;;;;;;;6.55;3.40;;;;;;;17.41;100.00;100248.00;5033346;28;20041;-74
2022/09/01 01:47:57;;;;;;;6.78;2.95;;;;;;;17.38;100.00;100248.28;5070253;28;20386;-74
2022/09/01 01:50:34;;;;;;;6.80;3.00;;;;;;;17.38;100.00;100248.28;5069991;28;20118;-74
2022/09/01 01:53:05;;;;;;;5.53;3.00;;;;;;;17.35;100.00;100249.41;5070220;28;20123;-74
2022/09/01 01:55:40;;;;;;;4.75;2.80;;;;;;;17.38;100.00;100248.28;5069912;28;20045;-74
2022/09/01 01:58:10;;;;;;;6.45;3.03;;;;;;;17.42;100.00;100239.78;5070008;28;20071;-74
2022/09/01 02:00:46;;;;;;;4.65;2.55;;;;;;;17.69;100.00;100241.88;5070143;28;20072;-74
2022/09/01 02:03:37;;;;;;;4.90;2.77;;;;;;;17.45;100.00;100242.19;5069837;28;20132;-74
2022/09/01 02:06:08;;;;;;;4.63;2.92;;;;;;;17.31;100.00;100236.34;5069773;28;20072;-74
2022/09/01 02:08:39;;;;;;;5.28;2.90;;;;;;;17.45;100.00;100228.72;5069830;28;20431;-74
2022/09/01 02:11:08;;;;;;;5.90;2.75;;;;;;;17.32;100.00;100227.25;5069978;28;20051;-74
2022/09/01 02:13:36;;;;;;;5.13;2.90;;;;;;;17.47;100.00;100231.31;5069604;28;20445;-74
2022/09/01 02:16:10;;;;;;;4.20;2.80;;;;;;;17.32;100.00;100222.72;5069800;28;20051;-73
2022/09/01 02:18:43;;;;;;;5.75;2.80;;;;;;;17.34;100.00;100215.34;5069272;28;20126;-74
2022/09/01 02:21:14;;;;;;;5.60;2.58;;;;;;;17.07;100.00;100212.38;5069802;28;20033;-73
2022/09/01 02:23:48;;;;;;;3.65;2.35;;;;;;;16.99;100.00;100201.44;5069643;28;20049;-74
2022/09/01 02:26:17;;;;;;;5.40;3.00;;;;;;;16.91;100.00;100199.41;5069230;28;20060;-75
2022/09/01 02:28:48;;;;;;;6.13;2.60;;;;;;;16.74;100.00;100197.34;5069416;28;20486;-74
2022/09/01 02:31:24;;;;;;;5.38;2.60;;;;;;;16.74;100.00;100210.81;5068969;28;20041;-74
2022/09/01 02:33:54;;;;;;;6.53;3.15;;;;;;;16.77;100.00;100207.84;5069270;28;20083;-74
2022/09/01 02:36:23;;;;;;;4.68;2.42;;;;;;;16.74;100.00;100211.66;5069180;28;20099;-74
2022/09/01 02:38:54;;;;;;;5.45;2.42;;;;;;;16.63;100.00;100218.94;5069385;28;20048;-74
2022/09/01 02:41:26;;;;;;;3.80;2.33;;;;;;;16.66;100.00;100208.72;5069012;28;20557;-74
2022/09/01 02:43:54;;;;;;;4.20;2.45;;;;;;;16.53;100.00;100208.09;5069064;28;20041;-74
2022/09/01 02:46:22;;;;;;;5.50;2.58;;;;;;;16.47;100.00;100201.38;5068559;28;20056;-74
2022/09/01 02:48:53;;;;;;;4.63;2.45;;;;;;;16.39;100.00;100201.16;5056039;28;20041;-73
2022/09/01 02:51:25;;;;;;;5.95;2.90;;;;;;;16.28;100.00;100195.84;5055446;28;20069;-74
2022/09/01 02:53:53;;;;;;;5.25;2.45;;;;;;;15.91;100.00;100187.31;5055693;28;20051;-74
2022/09/01 02:56:24;;;;;;;5.45;2.45;;;;;;;16.08;100.00;100183.22;5055237;28;20407;-74
2022/09/01 02:58:53;;;;;;;5.25;2.60;;;;;;;15.95;100.00;100192.34;5055818;28;20095;-71
2022/09/01 03:01:24;;;;;;;5.00;2.38;;;;;;;16.09;100.00;100193.00;5055397;28;20467;-72
2022/09/01 03:03:56;;;;;;;4.88;2.50;;;;;;;16.20;100.00;100184.88;5055773;28;20040;-72
2022/09/01 03:06:24;;;;;;;6.00;2.53;;;;;;;16.37;100.00;100189.69;5055222;28;20487;-72
2022/09/01 03:08:58;;;;;;;5.10;2.33;;;;;;;16.35;100.00;100191.66;5055279;28;20045;-71
2022/09/01 03:11:28;;;;;;;4.70;2.35;;;;;;;16.47;100.00;100190.59;5055090;28;20059;-70
2022/09/01 03:13:57;;;;;;;6.65;2.30;;;;;;;16.39;100.00;100178.78;5055971;28;20095;-70
2022/09/01 03:16:25;;;;;;;5.32;2.47;;;;;;;16.17;100.00;100179.75;5055190;28;20051;-70
2022/09/01 03:18:55;;;;;;;4.80;2.30;;;;;;;16.01;100.00;100175.66;5055098;28;20061;-70
2022/09/01 03:21:24;;;;;;;4.70;2.65;;;;;;;15.83;100.00;100182.59;5054817;28;20045;-70
2022/09/01 03:23:53;;;;;;;7.50;2.65;;;;;;;15.90;100.00;100172.16;5055296;28;20047;-70
2022/09/01 03:26:22;;;;;;;7.38;2.28;;;;;;;16.01;100.00;100181.03;5054740;28;20041;-71
2022/09/01 03:28:51;;;;;;;5.68;2.58;;;;;;;15.62;100.00;100179.84;5054946;28;20118;-70
2022/09/01 03:31:20;;;;;;;4.65;2.30;;;;;;;15.66;100.00;100167.00;5054934;28;20049;-71
2022/09/01 03:33:49;;;;;;;5.75;2.75;;;;;;;15.62;100.00;100162.84;5054889;28;20426;-73
2022/09/01 03:36:19;;;;;;;6.80;2.72;;;;;;;15.64;100.00;100163.59;5054990;28;20395;-73
2022/09/01 03:38:49;;;;;;;4.68;2.60;;;;;;;15.65;100.00;100173.38;5054935;28;20136;-73
2022/09/01 03:41:21;;;;;;;5.85;2.60;;;;;;;15.82;100.00;100188.09;5054917;28;20120;-73
2022/09/01 03:43:50;;;;;;;5.00;2.60;;;;;;;15.79;100.00;100193.72;5054841;28;20041;-74
2022/09/01 03:46:20;;;;;;;6.78;2.80;;;;;;;15.91;100.00;100188.19;5054377;28;20053;-74
2022/09/01 03:48:50;;;;;;;6.25;2.63;;;;;;;15.84;100.00;100195.06;5054814;28;20102;-74
2022/09/01 03:51:22;;;;;;;5.15;2.17;;;;;;;15.91;100.00;100198.94;5054402;28;20123;-73
2022/09/01 03:53:53;;;;;;;5.93;2.20;;;;;;;15.95;100.00;100203.09;5054613;28;20053;-73
2022/09/01 03:56:25;;;;;;;5.47;2.42;;;;;;;16.01;100.00;100212.47;5054352;28;20480;-74
2022/09/01 03:58:55;;;;;;;4.50;2.10;;;;;;;15.93;100.00;100210.44;5053605;28;20045;-74
2022/09/01 04:01:25;;;;;;;4.53;2.20;;;;;;;15.93;100.00;100205.06;5054507;28;20394;-74
2022/09/01 04:03:54;;;;;;;4.43;2.35;;;;;;;15.99;100.00;100199.16;5054379;28;20069;-74
2022/09/01 04:06:24;;;;;;;3.60;2.17;;;;;;;15.98;100.00;100194.75;5054097;28;20044;-74
2022/09/01 04:08:56;;;;;;;4.20;2.20;;;;;;;16.00;100.00;100191.94;5054332;28;20052;-74
2022/09/01 04:11:25;;;;;;;4.03;2.28;;;;;;;15.89;100.00;100186.59;5053857;28;20041;-74
2022/09/01 04:13:53;;;;;;;4.45;2.40;;;;;;;15.64;100.00;100193.19;5054204;28;20052;-74
2022/09/01 04:19:18;;;;;;;4.88;2.58;;;;;;;15.64;100.00;100187.81;5054151;28;20400;-74
2022/09/01 04:21:50;;;;;;;6.32;2.53;;;;;;;15.52;100.00;100178.00;5053849;28;20049;-74
2022/09/01 04:24:19;;;;;;;4.82;2.47;;;;;;;15.62;100.00;100184.34;5054223;28;20041;-74
2022/09/01 04:26:48;;;;;;;5.53;2.45;;;;;;;15.62;100.00;100184.34;5053634;28;20045;-74
2022/09/01 04:29:18;;;;;;;7.07;2.60;;;;;;;15.67;100.00;100198.28;5053891;28;20041;-74
2022/09/01 04:31:50;;;;;;;7.03;2.85;;;;;;;15.60;100.00;100197.03;5053782;28;20037;-74
2022/09/01 04:34:21;;;;;;;5.32;2.60;;;;;;;15.58;100.00;100189.13;5053649;28;20053;-75
2022/09/01 04:36:54;;;;;;;5.85;2.60;;;;;;;15.57;100.00;100187.41;5054002;28;20067;-75
2022/09/01 04:39:23;;;;;;;6.93;2.55;;;;;;;15.75;100.00;100190.44;5052522;28;20072;-75
2022/09/01 04:41:51;;;;;;;5.13;2.97;;;;;;;15.69;100.00;100185.56;5053996;28;20099;-76
2022/09/01 04:44:19;;;;;;;6.57;2.70;;;;;;;15.64;100.00;100171.66;5053632;28;20045;-77
2022/09/01 04:46:49;;;;;;;8.45;2.95;;;;;;;15.64;100.00;100177.91;5052729;28;20068;-77
2022/09/01 04:49:21;;;;;;;4.20;2.70;;;;;;;15.67;100.00;100182.16;5053241;28;20048;-75
2022/09/01 04:51:52;;;;;;;6.13;2.97;;;;;;;15.75;100.00;100182.38;5053650;28;20051;-74
2022/09/01 04:54:23;;;;;;;5.95;2.95;;;;;;;15.80;100.00;100187.38;5053384;28;20048;-74
2022/09/01 04:56:53;;;;;;;5.72;2.58;;;;;;;15.64;100.00;100183.28;5053168;28;20491;-75
2022/09/01 04:59:25;;;;;;;7.45;2.83;;;;;;;15.60;100.00;100186.28;5053449;28;20067;-74
2022/09/01 05:01:54;;;;;;;5.75;2.85;;;;;;;15.74;100.00;100186.06;5052159;28;20056;-74
2022/09/01 05:04:26;;;;;;;6.53;3.10;;;;;;;15.66;100.00;100188.53;5053051;28;20464;-74
2022/09/01 05:06:59;;;;;;;5.45;3.25;;;;;;;15.67;100.00;100182.16;5053034;28;20045;-74
2022/09/01 05:09:29;;;;;;;7.65;2.72;;;;;;;15.72;100.00;100183.47;5051326;28;20088;-74
2022/09/01 05:12:09;;;;;;;9.57;3.00;;;;;;;15.77;100.00;100183.09;5052913;28;20491;-75
2022/09/01 05:14:41;;;;;;;6.65;2.95;;;;;;;15.58;100.00;100180.19;5052987;28;20103;-74
2022/09/01 05:17:10;;;;;;;9.30;2.85;;;;;;;15.82;100.00;100185.41;5052977;28;20055;-75
2022/09/01 05:19:41;;;;;;;6.47;2.90;;;;;;;15.82;100.00;100190.78;5052610;28;20143;-76
2022/09/01 05:22:12;;;;;;;6.63;3.33;;;;;;;15.78;100.00;100184.81;5052962;28;20383;-76
2022/09/01 05:24:40;;;;;;;7.80;3.33;;;;;;;15.92;100.00;100179.16;5052882;28;20048;-76
2022/09/01 05:27:11;;;;;;;6.45;3.30;;;;;;;15.85;100.00;100182.47;5052817;28;20449;-76
2022/09/01 05:29:40;;;;;;;7.22;3.75;;;;;;;15.84;100.00;100188.84;5052586;28;20564;-75
2022/09/01 05:32:08;;;;;;;7.82;4.05;;;;;;;15.81;100.00;100192.63;5052625;28;20045;-75
2022/09/01 05:34:37;;;;;;;6.38;3.20;;;;;;;15.87;100.00;100194.81;5052629;28;20478;-75
2022/09/01 05:37:07;;;;;;;7.25;3.15;;;;;;;15.83;100.00;100198.75;5052939;28;20041;-76
2022/09/01 05:39:37;;;;;;;5.80;3.30;;;;;;;15.92;100.00;100192.59;5052389;28;20132;-76
2022/09/01 05:42:07;;;;;;;7.80;2.78;;;;;;;15.92;100.00;100189.91;5052858;28;20123;-84
2022/09/01 05:44:35;;;;;;;4.75;2.75;;;;;;;15.77;100.00;100190.31;5052519;28;20037;-78
2022/09/01 05:47:05;;;;;;;7.45;2.92;;;;;;;15.75;100.00;100190.44;5051067;28;20410;-78
2022/09/01 05:49:33;;;;;;;6.05;2.78;;;;;;;15.69;100.00;100190.94;5052639;28;20478;-78
2022/09/01 05:52:02;;;;;;;6.68;2.97;;;;;;;15.73;100.00;100193.28;5051928;28;20410;-78
2022/09/01 05:54:31;;;;;;;6.22;2.72;;;;;;;15.57;100.00;100194.63;5052375;28;20044;-76
2022/09/01 05:57:02;;;;;;;5.22;2.40;;;;;;;15.67;100.00;100198.28;5052432;28;20537;-75
2022/09/01 05:59:52;;;;;;;5.55;2.70;;;;;;;15.66;100.00;100200.13;5052129;28;20045;-77
2022/09/01 06:02:21;;;;;;;6.03;2.70;;;;;;;15.59;100.00;100192.66;5052448;28;20073;-75
2022/09/01 06:04:51;;;;;;;4.95;2.60;;;;;;;15.52;100.00;100189.59;5052394;28;20095;-75
2022/09/01 06:07:22;;;;;;;5.47;2.65;;;;;;;15.53;100.00;100195.81;5052405;28;20570;-76
2022/09/01 06:09:52;;;;;;;5.93;3.00;;;;;;;15.54;100.00;100198.41;5052210;28;20128;-76
2022/09/01 06:12:23;;;;;;;5.68;3.10;;;;;;;15.60;100.00;100208.69;5052620;28;20048;-76
2022/09/01 06:14:53;;;;;;;7.93;3.47;;;;;;;15.67;100.00;100209.03;5050970;28;20098;-76
2022/09/01 06:17:24;;;;;;;5.45;3.67;;;;;;;15.60;100.00;100214.06;5050925;28;20549;-76
2022/09/01 06:19:54;;;;;;;8.77;3.75;;;;;;;15.68;100.00;100211.59;5052338;28;20037;-75
2022/09/01 06:22:25;;;;;;;6.32;3.00;;;;;;;15.83;100.00;100209.50;5052869;28;20065;-75
2022/09/01 06:24:53;;;;;;;5.60;2.83;;;;;;;15.92;100.00;100200.69;5056114;28;20099;-77
2022/09/01 06:27:29;;;;;;;7.00;3.10;;;;;;;16.02;100.00;100193.53;5056245;28;20119;-78
2022/09/01 06:29:58;;;;;;;6.90;3.28;;;;;;;15.67;100.00;100204.53;5056077;28;20052;-76
2022/09/01 06:32:35;;;;;;;8.90;3.83;;;;;;;15.80;100.00;100204.34;5055604;28;20087;-78
2022/09/01 06:35:07;;;;;;;7.25;3.10;;;;;;;16.02;100.00;100204.31;5055856;28;20043;-78
2022/09/01 06:37:37;;;;;;;5.00;2.47;;;;;;;16.08;100.00;100207.44;5055169;28;20041;-75
2022/09/01 06:40:09;;;;;;;6.35;3.08;;;;;;;16.00;100.00;100206.25;5055264;28;20076;-75
2022/09/01 06:42:40;;;;;;;5.53;2.80;;;;;;;16.07;100.00;100203.03;5055380;28;20072;-76
2022/09/01 06:45:10;;;;;;;6.70;2.75;;;;;;;16.14;100.00;100212.31;5055869;28;20103;-77
2022/09/01 06:47:39;;;;;;;6.57;2.92;;;;;;;16.07;100.00;100211.97;5055128;28;20086;-80
2022/09/01 06:50:07;;;;;;;4.63;2.72;;;;;;;16.10;100.00;100216.22;5055773;28;20048;-75
2022/09/01 06:52:37;;;;;;;5.90;2.90;;;;;;;16.11;100.00;100226.88;5055350;28;20071;-73
2022/09/01 06:55:33;;;;;;;5.68;2.80;;;;;;;16.11;100.00;100216.09;5055399;28;20052;-76
2022/09/01 06:58:04;;;;;;;6.38;2.70;;;;;;;16.28;100.00;100214.69;5055405;28;20037;-74
2022/09/01 07:00:40;;;;;;;7.20;2.80;;;;;;;16.27;100.00;100227.28;5055210;28;20041;-75
2022/09/01 07:03:10;;;;;;;5.20;2.33;;;;;;;16.19;100.00;100226.22;5055616;28;20278;-74
2022/09/01 07:05:39;;;;;;;5.32;2.65;;;;;;;16.12;100.00;100230.44;5055000;28;20052;-74
2022/09/01 07:08:27;;;;;;;5.38;3.30;;;;;;;16.35;100.00;100226.66;5055460;28;20048;-74
2022/09/01 07:10:56;;;;;;;5.60;2.85;;;;;;;16.31;100.00;100231.47;5055269;28;20094;-75
2022/09/01 07:13:46;;;;;;;5.28;2.60;;;;;;;16.44;100.00;100230.41;5055054;28;20118;-74
2022/09/01 07:16:39;;;;;;;6.80;2.63;;;;;;;16.37;100.00;100222.00;5055008;28;20041;-75
2022/09/01 07:19:20;;;;;;;7.38;2.80;;;;;;;16.42;100.00;100244.00;5054061;28;20414;-74
2022/09/01 07:21:48;;;;;;;8.38;2.65;;;;;;;16.42;100.00;100233.25;5054887;28;20068;-74
2022/09/01 07:24:38;;;;;;;4.78;2.50;;;;;;;16.57;100.00;100239.13;5054933;28;20040;-74
2022/09/01 07:27:08;;;;;;;7.05;3.00;;;;;;;16.63;100.00;100235.09;5054943;28;20045;-74
2022/09/01 07:29:39;;;;;;;5.03;2.50;;;;;;;16.64;100.00;100231.41;5055081;28;20037;-74
2022/09/01 07:32:09;;;;;;;5.38;2.60;;;;;;;16.57;100.00;100231.91;5055229;28;20471;-74
2022/09/01 07:34:58;;;;;;;6.00;2.60;;;;;;;16.68;100.00;100227.44;5053999;28;20383;-74
2022/09/01 07:37:47;;;;;;;5.10;2.63;;;;;;;16.72;100.00;100231.63;5052955;28;20077;-74
2022/09/01 07:40:38;;;;;;;6.13;2.45;;;;;;;16.71;100.00;100238.84;5054782;28;20053;-74
2022/09/01 07:43:27;;;;;;;5.03;2.17;;;;;;;16.63;100.00;100235.09;5054686;28;20544;-74
2022/09/01 07:46:05;;;;;;;8.68;2.80;;;;;;;16.93;100.00;100237.84;5054634;28;20493;-74
2022/09/01 07:48:54;;;;;;;7.05;2.60;;;;;;;16.99;100.00;100244.56;5054467;28;20045;-74
2022/09/01 07:51:44;;;;;;;4.93;2.55;;;;;;;16.94;100.00;100242.25;5054391;28;20051;-74
2022/09/01 07:54:12;;;;;;;7.43;2.45;;;;;;;17.15;100.00;100232.28;5054282;28;20072;-73
2022/09/01 07:56:41;;;;;;;5.63;2.80;;;;;;;17.21;100.00;100246.22;5054412;28;20052;-74
2022/09/01 07:59:09;;;;;;;6.03;2.83;;;;;;;17.14;100.00;100246.75;5054493;28;20403;-74
2022/09/01 08:01:44;;;;;;;5.82;2.65;;;;;;;17.38;100.00;100249.16;5054264;28;20041;-73
2022/09/01 08:04:12;;;;;;;5.88;2.60;;;;;;;17.38;100.00;100248.28;5054546;28;20041;-74
2022/09/01 08:06:40;;;;;;;4.68;2.03;;;;;;;17.39;100.00;100247.31;5052404;28;20060;-73
2022/09/01 08:09:11;;;;;;;5.18;1.90;;;;;;;17.26;100.00;100243.97;5054282;28;20422;-73
2022/09/01 08:11:59;;;;;;;4.40;2.00;;;;;;;17.14;100.00;100249.44;5052447;28;20049;-73
2022/09/01 08:14:31;;;;;;;4.65;2.08;;;;;;;17.25;100.00;100251.19;5054205;28;20127;-73
2022/09/01 08:17:04;;;;;;;6.55;2.95;;;;;;;17.43;100.00;100246.03;5053841;28;20402;-74
2022/09/01 08:19:53;;;;;;;5.35;2.15;;;;;;;17.00;100.00;100244.44;5053757;28;20112;-73
2022/09/01 08:22:23;;;;;;;4.38;1.90;;;;;;;16.76;100.00;100241.16;5054120;28;20073;-73
2022/09/01 08:24:53;;;;;;;3.65;2.08;;;;;;;17.21;100.00;100239.00;5053691;28;20038;-73
2022/09/01 08:27:22;;;;;;;5.35;2.55;;;;;;;17.32;100.00;100238.03;5053631;28;20059;-74
2022/09/01 08:29:50;;;;;;;5.97;2.47;;;;;;;17.41;100.00;100248.00;5053662;28;20395;-73
2022/09/01 08:32:21;;;;;;;4.53;2.17;;;;;;;17.29;100.00;100247.25;5052406;28;20541;-73
2022/09/01 08:34:49;;;;;;;4.05;2.25;;;;;;;17.45;100.00;100247.59;5053584;28;20429;-73
2022/09/01 08:37:18;;;;;;;4.00;2.22;;;;;;;17.72;100.00;100249.69;5052380;28;20053;-73
2022/09/01 08:39:48;;;;;;;6.07;2.60;;;;;;;17.72;100.00;100252.41;5051952;28;20053;-73
2022/09/01 08:42:25;;;;;;;4.10;2.20;;;;;;;17.78;100.00;100253.69;5053411;28;20041;-73
2022/09/01 08:45:08;;;;;;;5.45;2.45;;;;;;;17.77;100.00;100249.31;5051551;28;20422;-73
2022/09/01 08:47:38;;;;;;;4.72;2.17;;;;;;;17.79;100.00;100247.31;5053356;28;20061;-73
2022/09/01 08:50:26;;;;;;;3.60;2.05;;;;;;;17.65;100.00;100251.19;5052286;28;20132;-73
2022/09/01 08:53:01;;;;;;;8.50;2.42;;;;;;;17.68;100.00;100244.69;5053418;28;20077;-73
2022/09/01 08:55:43;;;;;;;4.53;2.20;;;;;;;18.10;100.00;100248.06;5053512;28;20120;-73
2022/09/01 08:58:15;;;;;;;7.68;2.00;;;;;;;18.22;100.00;100249.63;5053380;28;20045;-73
2022/09/01 09:00:50;;;;;;;4.90;2.08;;;;;;;17.96;100.00;100253.88;5053054;28;20120;-73
2022/09/01 09:03:31;;;;;;;5.28;2.15;;;;;;;18.31;100.00;100242.53;5053367;28;20041;-73
2022/09/01 09:06:21;;;;;;;4.72;2.30;;;;;;;18.58;100.00;100239.97;5051938;28;20072;-73
2022/09/01 09:08:57;;;;;;;3.05;1.77;;;;;;;18.62;100.00;100242.38;5051748;28;20049;-73
2022/09/01 09:11:50;;;;;;;6.15;2.22;;;;;;;18.39;100.00;100231.03;5053371;28;20041;-72
2022/09/01 09:14:37;;;;;;;5.18;1.83;;;;;;;18.45;100.00;100244.81;5052039;28;20063;-72
2022/09/01 09:17:05;;;;;;;4.55;2.10;;;;;;;18.33;100.00;100243.22;5051669;28;20103;-72
2022/09/01 09:19:38;;;;;;;3.67;2.00;;;;;;;18.63;100.00;100236.84;5052846;28;20123;-73
2022/09/01 09:22:10;;;;;;;3.33;1.65;;;;;;;18.48;100.00;100243.66;5053096;28;20037;-73
2022/09/01 09:24:50;;;;;;;4.85;1.80;;;;;;;18.54;100.00;100237.72;5052004;28;20501;-73
2022/09/01 09:27:21;;;;;;;4.22;1.80;;;;;;;18.50;100.00;100226.31;5052989;28;20467;-73
2022/09/01 09:29:52;;;;;;;4.10;1.80;;;;;;;18.76;100.00;100234.72;5051364;28;20503;-74
2022/09/01 09:32:21;;;;;;;4.43;1.75;;;;;;;18.84;100.00;100223.19;5051654;28;20049;-73
2022/09/01 09:35:18;;;;;;;7.55;1.92;;;;;;;18.99;100.00;100226.25;5052428;28;20095;-73
2022/09/01 09:37:48;;;;;;;5.07;2.08;;;;;;;18.92;100.00;100230.56;5052147;28;20048;-73
2022/09/01 09:40:19;;;;;;;3.95;1.85;;;;;;;18.92;100.00;100235.97;5052458;28;20131;-73
2022/09/01 09:43:04;;;;;;;4.95;1.85;;;;;;;19.02;100.00;100226.84;5052814;28;20106;-73
2022/09/01 09:45:34;;;;;;;4.85;2.33;;;;;;;18.68;100.00;100228.31;5052698;28;20124;-73
2022/09/01 09:48:07;;;;;;;4.30;1.55;;;;;;;18.90;100.00;100221.72;5051465;28;20057;-73
2022/09/01 09:50:42;;;;;;;6.15;2.13;;;;;;;19.19;100.00;100222.47;5052640;28;20072;-73
2022/09/01 09:53:14;;;;;;;4.95;1.75;;;;;;;19.06;100.00;100212.00;5052914;28;20049;-73
2022/09/01 09:55:54;;;;;;;5.25;2.00;;;;;;;19.08;100.00;100219.97;5052398;28;20037;-72
2022/09/01 09:58:25;;;;;;;3.38;1.80;;;;;;;19.28;100.00;100213.47;5055068;28;20041;-73
2022/09/01 10:01:14;;;;;;;4.97;1.98;;;;;;;19.25;100.00;100208.38;5056401;28;20123;-73
2022/09/01 10:03:47;;;;;;;5.90;2.00;;;;;;;19.61;100.00;100203.97;5056390;28;20095;-73
2022/09/01 10:06:32;;;;;;;4.83;1.80;;;;;;;19.63;100.00;100209.22;5056565;28;20040;-73
2022/09/01 10:09:04;;;;;;;4.82;2.00;;;;;;;19.51;100.00;100210.41;5056264;28;20281;-73
2022/09/01 10:11:37;;;;;;;4.65;1.90;;;;;;;19.40;100.00;100200.63;5056400;28;20056;-73
2022/09/01 10:14:15;;;;;;;5.60;1.90;;;;;;;19.39;100.00;100207.88;5056103;28;20095;-72
2022/09/01 10:17:08;;;;;;;5.63;1.98;;;;;;;19.33;100.00;100194.97;5054306;28;20071;-73
2022/09/01 10:19:40;;;;;;;7.32;1.90;;;;;;;19.60;100.00;100194.16;5056138;28;20048;-73
2022/09/01 10:22:12;;;;;;;4.57;1.70;;;;;;;19.53;100.00;100202.97;5055863;28;20048;-73
2022/09/01 10:24:43;;;;;;;5.70;1.92;;;;;;;19.70;100.00;100199.50;5054853;28;20833;-73
2022/09/01 10:27:20;;;;;;;3.95;1.75;;;;;;;19.66;100.00;100204.34;5054868;28;20053;-73
2022/09/01 10:29:54;;;;;;;5.13;1.80;;;;;;;19.75;100.00;100202.59;5055690;28;20044;-73
2022/09/01 10:32:45;;;;;;;3.00;1.60;;;;;;;19.66;100.00;100190.81;5056103;28;20099;-72
2022/09/01 10:35:26;;;;;;;3.78;1.70;;;;;;;19.66;100.00;100198.09;5056128;28;20059;-73
2022/09/01 10:38:00;;;;;;;3.65;1.70;;;;;;;19.70;100.00;100199.50;5054337;28;20044;-73
2022/09/01 10:40:43;;;;;;;4.93;1.60;;;;;;;19.86;100.00;100204.22;5055705;28;20087;-72
2022/09/01 10:43:39;;;;;;;3.85;1.50;;;;;;;19.54;100.00;100189.31;5055980;28;20116;-72
2022/09/01 10:46:44;;;;;;;3.03;1.70;;;;;;;19.78;100.00;100185.19;5052120;28;20502;-72
2022/09/01 10:49:37;;;;;;;3.05;1.48;;;;;;;19.87;100.00;100192.38;5035725;28;20053;-73
2022/09/01 10:52:05;;;;;;;3.70;1.80;;;;;;;19.83;100.00;100191.00;5042839;28;20472;-73
2022/09/01 10:54:56;;;;;;;3.92;1.45;;;;;;;19.97;100.00;100199.44;5055648;28;20467;-73
2022/09/01 10:57:39;;;;;;;5.03;1.50;;;;;;;20.22;100.00;100191.56;5055669;28;20072;-73
2022/09/01 11:00:47;;;;;;;4.50;1.58;;;;;;;20.09;100.00;100188.41;5054092;28;20053;-73
2022/09/01 11:03:49;;;;;;;3.28;1.70;;;;;;;20.09;100.00;100193.81;5055112;28;20483;-73
2022/09/01 11:06:37;;;;;;;;;;;;;;;20.10;100.00;100187.38;5056016;28;20049;-73
2022/09/01 11:09:17;;;;;;;4.60;1.85;;;;;;;20.08;100.00;100203.78;5053517;28;19925;-72
2022/09/01 11:12:00;;;;;;;4.95;1.63;;;;;;;20.03;100.00;100192.56;5055438;28;20491;-73
2022/09/01 11:14:34;;;;;;;;;;;;;;;20.36;100.00;100190.97;5054794;28;20071;-73
2022/09/01 11:17:13;;;;;;;;;;;;;;;20.73;100.00;100188.09;5055271;28;19928;-73
2022/09/01 11:19:44;;;;;;;2.35;1.10;;;;;;;20.64;100.00;100188.19;5055359;28;20406;-73
2022/09/01 11:22:24;;;;;;;2.28;1.40;;;;;;;20.52;100.00;100185.75;5055020;28;20051;-72
2022/09/01 11:25:21;;;;;;;2.92;1.13;;;;;;;20.67;100.00;100174.34;5055037;28;20081;-73
2022/09/01 11:28:00;;;;;;;2.58;1.40;;;;;;;20.60;100.00;100186.81;5054797;28;20067;-73
2022/09/01 11:30:50;;;;;;;3.17;1.60;;;;;;;20.83;100.00;100175.28;5054972;28;20048;-72
2022/09/01 11:33:38;;;;;;;3.15;1.60;;;;;;;20.97;100.00;100179.28;5055155;28;20078;-73
2022/09/01 11:36:14;;;;;;;1.95;1.20;;;;;;;21.04;97.90;100174.91;5054666;28;20052;-73
2022/09/01 11:38:50;;;;;;;3.28;1.30;;;;;;;20.93;74.37;100175.16;5053782;28;20423;-72
2022/09/01 11:41:24;;;;;;;2.28;1.30;;;;;;;20.92;64.08;100165.34;5054599;28;20044;-73
2022/09/01 11:43:57;;;;;;;3.53;1.35;;;;;;;21.04;63.17;100174.06;5053470;28;20174;-73
2022/09/01 11:46:28;;;;;;;3.30;1.13;;;;;;;21.06;60.83;100167.47;5053291;28;20099;-73
2022/09/01 11:48:57;;;;;;;2.28;1.15;;;;;;;20.99;62.01;100165.56;5054578;28;20083;-73
2022/09/01 11:51:26;;;;;;;5.32;1.42;;;;;;;21.26;62.03;100161.78;5054459;28;20069;-72
2022/09/01 11:54:00;;;;;;;2.60;1.13;;;;;;;21.31;60.23;100162.16;5053939;28;20063;-73
2022/09/01 11:56:29;;;;;;;2.20;1.30;;;;;;;21.28;61.60;100154.34;5054505;28;20063;-72
2022/09/01 11:58:58;;;;;;;3.15;1.60;;;;;;;21.41;60.01;100166.44;5054234;28;20045;-73
2022/09/01 12:01:33;;;;;;;2.70;1.33;;;;;;;21.57;58.79;100168.38;5054340;28;20087;-73
2022/09/01 12:04:21;;;;;;;5.25;1.40;;;;;;;21.64;56.50;100161.28;5054119;28;20461;-73
2022/09/01 12:06:57;;;;;;;3.70;1.70;;;;;;;21.63;58.13;100164.16;5054505;28;20124;-73
2022/09/01 12:09:33;;;;;;;4.18;1.30;;;;;;;21.56;56.52;100157.69;5053113;28;20049;-73